createdAt,value
2023-06-29T00:01:57.023Z,30.25
2023-06-29T00:04:27.262Z,29.92
2023-06-29T00:06:55.830Z,26.55
2023-06-29T00:09:23.861Z,29.02
2023-06-29T00:11:51.635Z,27.85
2023-06-29T00:14:19.482Z,29.52
2023-06-29T00:16:47.210Z,26.15
2023-06-29T00:19:16.194Z,28.60
2023-06-29T00:21:44.207Z,25.95
2023-06-29T00:24:12.394Z,29.27
2023-06-29T00:26:39.987Z,25.90
2023-06-29T00:29:08.082Z,31.48
2023-06-29T00:31:36.959Z,29.50
2023-06-29T00:34:04.587Z,30.15
2023-06-29T00:36:34.196Z,29.35
2023-06-29T00:39:01.873Z,32.28
2023-06-29T00:41:31.951Z,29.20
2023-06-29T00:44:01.411Z,31.02
2023-06-29T00:46:29.004Z,32.85
2023-06-29T00:48:56.804Z,32.88
2023-06-29T00:51:24.549Z,34.85
2023-06-29T00:53:52.313Z,34.85
2023-06-29T00:56:21.676Z,30.35
2023-06-29T00:58:49.790Z,32.00
2023-06-29T01:01:17.802Z,31.65
2023-06-29T01:03:46.177Z,32.70
2023-06-29T01:06:23.962Z,28.27
2023-06-29T01:08:59.490Z,30.85
2023-06-29T01:11:27.430Z,30.48
2023-06-29T01:13:56.964Z,31.40
2023-06-29T01:16:26.717Z,28.27
2023-06-29T01:18:57.840Z,32.47
2023-06-29T01:21:26.441Z,33.80
2023-06-29T01:24:00.573Z,29.77
2023-06-29T01:26:30.069Z,30.88
2023-06-29T01:28:58.045Z,30.20
2023-06-29T01:31:28.267Z,33.53
2023-06-29T01:33:56.266Z,34.33
2023-06-29T01:36:41.836Z,34.83
2023-06-29T01:39:18.591Z,33.58
2023-06-29T01:41:48.133Z,32.95
2023-06-29T01:44:17.914Z,32.00
2023-06-29T01:46:48.713Z,35.20
2023-06-29T01:49:16.585Z,34.13
2023-06-29T01:51:44.277Z,34.83
2023-06-29T01:54:12.193Z,31.75
2023-06-29T01:56:39.805Z,32.63
2023-06-29T01:59:07.776Z,31.92
2023-06-29T02:01:35.600Z,31.73
2023-06-29T02:04:05.039Z,32.33
2023-06-29T02:06:32.862Z,32.17
2023-06-29T02:09:00.804Z,30.30
2023-06-29T02:11:28.570Z,31.60
2023-06-29T02:13:56.623Z,29.23
2023-06-29T02:16:24.490Z,32.42
2023-06-29T02:18:52.196Z,31.48
2023-06-29T02:21:20.116Z,33.45
2023-06-29T02:23:47.843Z,33.70
2023-06-29T02:26:15.554Z,32.53
2023-06-29T02:28:43.202Z,33.40
2023-06-29T02:31:10.850Z,33.78
2023-06-29T02:33:38.868Z,33.08
2023-06-29T02:36:06.432Z,35.45
2023-06-29T02:38:34.659Z,36.00
2023-06-29T02:41:02.227Z,34.17
2023-06-29T02:43:29.821Z,34.78
2023-06-29T02:45:57.783Z,33.90
2023-06-29T02:48:27.459Z,32.47
2023-06-29T02:50:55.408Z,32.58
2023-06-29T02:53:23.187Z,31.13
2023-06-29T02:55:50.775Z,32.25
2023-06-29T02:58:18.484Z,30.95
2023-06-29T03:00:47.154Z,31.25
2023-06-29T03:03:14.852Z,33.67
2023-06-29T03:05:42.903Z,36.17
2023-06-29T03:08:10.770Z,33.08
2023-06-29T03:10:38.529Z,33.17
2023-06-29T03:13:06.237Z,29.90
2023-06-29T03:15:33.873Z,33.97
2023-06-29T03:18:01.548Z,30.58
2023-06-29T03:20:29.360Z,29.15
2023-06-29T03:22:57.058Z,28.23
2023-06-29T03:25:24.889Z,31.02
2023-06-29T03:27:52.685Z,30.73
2023-06-29T03:30:20.309Z,31.17
2023-06-29T03:32:48.021Z,32.03
2023-06-29T03:35:15.852Z,32.58
2023-06-29T03:37:43.528Z,31.33
2023-06-29T03:40:12.013Z,29.15
2023-06-29T03:42:39.806Z,29.73
2023-06-29T03:45:08.301Z,30.90
2023-06-29T03:47:35.961Z,29.38
2023-06-29T03:50:05.246Z,27.85
2023-06-29T03:52:32.791Z,30.30
2023-06-29T03:55:00.345Z,29.10
2023-06-29T03:57:28.129Z,30.70
2023-06-29T03:59:55.921Z,28.20
2023-06-29T04:02:23.731Z,31.20
2023-06-29T04:04:51.496Z,28.65
2023-06-29T04:07:19.243Z,34.20
2023-06-29T04:09:46.870Z,29.70
2023-06-29T04:12:14.656Z,29.73
2023-06-29T04:14:42.289Z,30.52
2023-06-29T04:17:09.862Z,30.73
2023-06-29T04:19:37.602Z,31.13
2023-06-29T04:22:05.585Z,28.77
2023-06-29T04:24:33.344Z,29.33
2023-06-29T04:27:01.490Z,29.75
2023-06-29T04:29:29.135Z,31.35
2023-06-29T04:31:56.737Z,28.08
2023-06-29T04:34:24.901Z,31.05
2023-06-29T04:36:57.205Z,35.20
2023-06-29T04:39:24.854Z,31.50
2023-06-29T04:42:02.346Z,33.35
2023-06-29T04:44:33.619Z,28.30
2023-06-29T04:47:02.004Z,28.13
2023-06-29T04:49:33.428Z,33.63
2023-06-29T04:54:29.020Z,31.48
2023-06-29T04:56:57.582Z,33.20
2023-06-29T04:59:28.341Z,33.95
2023-06-29T05:01:56.133Z,32.10
2023-06-29T05:04:23.734Z,30.92
2023-06-29T05:06:51.449Z,29.95
2023-06-29T05:09:18.982Z,34.20
2023-06-29T05:11:46.604Z,32.47
2023-06-29T05:14:14.407Z,31.42
2023-06-29T05:16:42.062Z,30.33
2023-06-29T05:19:09.673Z,30.67
2023-06-29T05:21:37.483Z,29.83
2023-06-29T05:24:05.754Z,32.45
2023-06-29T05:26:33.294Z,28.15
2023-06-29T05:29:05.751Z,30.80
2023-06-29T05:31:34.303Z,31.10
2023-06-29T05:34:01.971Z,29.75
2023-06-29T05:36:30.782Z,29.33
2023-06-29T05:38:58.514Z,30.13
2023-06-29T05:41:26.287Z,34.83
2023-06-29T05:43:53.836Z,32.13
2023-06-29T05:46:21.579Z,34.15
2023-06-29T05:48:49.407Z,29.65
2023-06-29T05:51:16.979Z,31.50
2023-06-29T05:53:44.630Z,34.42
2023-06-29T05:56:12.389Z,32.38
2023-06-29T05:58:40.006Z,32.28
2023-06-29T06:01:08.237Z,31.80
2023-06-29T06:03:36.784Z,34.42
2023-06-29T06:06:04.476Z,29.92
2023-06-29T06:08:32.419Z,28.70
2023-06-29T06:11:00.389Z,30.25
2023-06-29T06:13:27.942Z,30.05
2023-06-29T06:15:56.079Z,31.65
2023-06-29T06:18:24.137Z,32.38
2023-06-29T06:20:51.770Z,28.73
2023-06-29T06:23:19.629Z,28.20
2023-06-29T06:25:47.594Z,29.50
2023-06-29T06:28:15.154Z,27.77
2023-06-29T06:30:43.187Z,27.02
2023-06-29T06:33:11.588Z,33.03
2023-06-29T06:35:39.280Z,29.45
2023-06-29T06:38:06.816Z,31.67
2023-06-29T06:40:34.918Z,25.63
2023-06-29T06:43:03.163Z,25.83
2023-06-29T06:45:31.025Z,27.73
2023-06-29T06:47:58.915Z,31.75
2023-06-29T06:50:26.558Z,27.27
2023-06-29T06:52:54.235Z,26.25
2023-06-29T06:55:21.983Z,24.27
2023-06-29T06:57:49.702Z,22.67
2023-06-29T07:00:18.177Z,28.20
2023-06-29T07:02:46.024Z,27.50
2023-06-29T07:05:13.780Z,26.55
2023-06-29T07:07:41.477Z,28.25
2023-06-29T07:10:10.590Z,25.77
2023-06-29T07:12:38.163Z,27.83
2023-06-29T07:15:07.069Z,24.95
2023-06-29T07:17:34.661Z,31.67
2023-06-29T07:25:08.272Z,24.25
2023-06-29T07:27:35.954Z,27.92
2023-06-29T07:30:04.740Z,26.92
2023-06-29T07:32:32.408Z,27.25
2023-06-29T07:35:00.145Z,25.73
2023-06-29T07:37:27.804Z,25.30
2023-06-29T07:39:55.485Z,25.17
2023-06-29T07:42:38.266Z,27.20
2023-06-29T07:45:08.074Z,25.08
2023-06-29T07:47:35.851Z,26.70
2023-06-29T07:50:04.173Z,25.95
2023-06-29T07:52:32.194Z,25.35
2023-06-29T07:55:04.719Z,25.85
2023-06-29T08:00:10.645Z,26.35
2023-06-29T08:02:47.937Z,25.58
2023-06-29T08:07:49.940Z,24.63
2023-06-29T08:10:44.457Z,22.38
2023-06-29T08:13:12.343Z,24.55
2023-06-29T08:15:39.931Z,25.17
2023-06-29T08:18:07.546Z,20.38
2023-06-29T08:20:35.359Z,22.30
2023-06-29T08:23:02.883Z,20.63
2023-06-29T08:25:30.628Z,21.58
2023-06-29T08:27:58.221Z,20.17
2023-06-29T08:30:25.742Z,22.13
2023-06-29T08:32:53.691Z,24.20
2023-06-29T08:35:21.419Z,21.20
2023-06-29T08:37:49.161Z,22.92
2023-06-29T08:40:22.934Z,21.67
2023-06-29T08:42:51.453Z,20.17
2023-06-29T08:45:19.527Z,20.48
2023-06-29T08:47:53.033Z,20.98
2023-06-29T08:50:28.814Z,22.92
2023-06-29T08:52:58.960Z,21.27
2023-06-29T08:55:27.103Z,21.63
2023-06-29T08:57:57.825Z,20.08
2023-06-29T09:00:28.819Z,21.42
2023-06-29T09:02:57.710Z,19.13
2023-06-29T09:05:26.757Z,19.88
2023-06-29T09:07:54.702Z,20.42
2023-06-29T09:10:23.427Z,20.90
2023-06-29T09:13:43.955Z,21.50
2023-06-29T09:16:21.678Z,19.05
2023-06-29T09:18:58.128Z,21.17
2023-06-29T09:22:02.422Z,20.10
2023-06-29T09:25:33.187Z,23.40
2023-06-29T09:28:15.405Z,20.13
2023-06-29T09:31:39.437Z,19.85
2023-06-29T09:34:20.800Z,19.67
2023-06-29T09:39:18.961Z,23.05
2023-06-29T09:41:54.483Z,23.35
2023-06-29T09:44:26.144Z,19.52
2023-06-29T09:49:49.820Z,19.10
2023-06-29T09:52:19.438Z,20.17
2023-06-29T09:54:46.998Z,19.67
2023-06-29T09:57:15.604Z,18.45
2023-06-29T09:59:46.804Z,17.98
2023-06-29T10:04:43.586Z,19.67
2023-06-29T10:07:18.071Z,18.73
2023-06-29T10:09:51.467Z,21.08
2023-06-29T10:12:23.515Z,21.85
2023-06-29T10:14:55.747Z,23.65
2023-06-29T10:17:45.109Z,19.00
2023-06-29T10:20:15.849Z,18.38
2023-06-29T10:22:45.761Z,21.35
2023-06-29T10:25:22.697Z,17.13
2023-06-29T10:27:54.441Z,17.58
2023-06-29T10:30:22.481Z,17.80
2023-06-29T10:32:52.081Z,17.98
2023-06-29T10:35:27.072Z,17.63
2023-06-29T10:37:58.657Z,16.80
2023-06-29T10:40:27.282Z,18.23
2023-06-29T10:43:00.057Z,16.63
2023-06-29T10:45:27.525Z,17.98
2023-06-29T10:48:02.515Z,18.35
2023-06-29T10:50:32.599Z,17.27
2023-06-29T10:53:03.000Z,17.33
2023-06-29T10:55:46.364Z,15.97
2023-06-29T10:58:33.140Z,17.50
2023-06-29T11:01:01.982Z,16.30
2023-06-29T11:03:30.429Z,17.90
2023-06-29T11:05:59.236Z,15.05
2023-06-29T11:08:26.832Z,15.63
2023-06-29T11:10:54.576Z,17.52
2023-06-29T11:13:22.690Z,16.50
2023-06-29T11:15:57.818Z,15.27
2023-06-29T11:18:32.471Z,19.70
2023-06-29T11:21:03.054Z,18.45
2023-06-29T11:23:30.734Z,17.83
2023-06-29T11:26:03.590Z,17.85
2023-06-29T11:28:34.972Z,16.42
2023-06-29T11:31:04.698Z,19.08
2023-06-29T11:33:47.374Z,19.63
2023-06-29T11:36:16.391Z,18.92
2023-06-29T11:39:37.574Z,18.08
2023-06-29T11:42:24.491Z,17.88
2023-06-29T11:45:21.611Z,18.17
2023-06-29T11:48:06.778Z,19.15
2023-06-29T11:50:46.095Z,20.65
2023-06-29T11:53:22.844Z,19.27
2023-06-29T11:56:08.434Z,20.40
2023-06-29T11:59:27.962Z,19.05
2023-06-29T12:02:19.726Z,19.20
2023-06-29T12:05:24.431Z,23.30
2023-06-29T12:09:18.938Z,20.52
2023-06-29T12:12:20.623Z,21.52
2023-06-29T12:15:33.050Z,19.35
2023-06-29T12:31:19.179Z,20.60
2023-06-29T12:35:15.835Z,23.88
2023-06-29T12:39:41.842Z,22.58
2023-06-29T12:46:16.319Z,24.98
2023-06-29T12:53:19.880Z,24.20
2023-06-29T13:01:54.167Z,23.05
2023-06-29T13:09:11.255Z,26.58
2023-06-29T13:10:05.082Z,27.60
2023-06-29T13:44:05.662Z,25.13
2023-06-29T13:46:46.124Z,29.70
2023-06-29T13:49:43.363Z,29.58
2023-06-29T13:52:17.499Z,27.95
2023-06-29T13:54:47.980Z,29.25
2023-06-29T13:57:27.942Z,30.92
2023-06-29T13:59:56.041Z,29.95
2023-06-29T14:02:26.689Z,30.30
2023-06-29T14:05:02.894Z,30.55
2023-06-29T14:07:30.858Z,35.90
2023-06-29T14:09:58.728Z,32.72
2023-06-29T14:12:29.105Z,21.83
2023-06-29T14:14:59.308Z,22.07
2023-06-29T14:17:26.995Z,21.27
2023-06-29T14:20:04.579Z,22.80
2023-06-29T14:22:33.770Z,24.85
2023-06-29T14:25:01.478Z,20.25
2023-06-29T14:27:29.246Z,19.98
2023-06-29T14:29:56.757Z,22.05
2023-06-29T14:32:24.286Z,23.30
2023-06-29T14:34:51.923Z,23.48
2023-06-29T14:37:19.606Z,21.83
2023-06-29T14:39:47.174Z,23.75
2023-06-29T14:42:14.723Z,22.92
2023-06-29T14:44:44.480Z,23.05
2023-06-29T14:47:12.715Z,23.48
2023-06-29T14:49:40.447Z,24.75
2023-06-29T14:52:08.331Z,22.55
2023-06-29T14:55:21.421Z,21.33
2023-06-29T14:59:02.727Z,22.35
2023-06-29T15:02:02.068Z,22.77
2023-06-29T15:04:43.177Z,21.85
2023-06-29T15:07:13.353Z,23.65
2023-06-29T15:09:42.694Z,25.83
2023-06-29T15:12:37.537Z,24.50
2023-06-29T15:15:13.168Z,22.58
2023-06-29T15:17:53.488Z,22.55
2023-06-29T15:21:52.428Z,24.65
2023-06-29T15:28:54.543Z,22.38
2023-06-29T15:32:15.177Z,23.02
2023-06-29T15:38:24.645Z,23.42
2023-06-29T15:40:55.862Z,21.98
2023-06-29T15:43:23.982Z,23.83
2023-06-29T15:45:51.639Z,24.63
2023-06-29T15:48:19.559Z,25.38
2023-06-29T15:50:47.267Z,24.35
2023-06-29T15:53:15.092Z,22.95
2023-06-29T15:55:43.026Z,21.05
2023-06-29T15:58:10.742Z,20.50
2023-06-29T16:00:39.723Z,23.33
2023-06-29T16:03:07.472Z,22.23
2023-06-29T16:05:36.076Z,22.20
2023-06-29T16:08:03.979Z,21.33
2023-06-29T16:10:31.482Z,22.38
2023-06-29T16:12:59.159Z,24.55
2023-06-29T16:15:28.113Z,21.95
2023-06-29T16:17:58.164Z,22.70
2023-06-29T16:20:25.772Z,21.27
2023-06-29T16:22:53.492Z,22.45
2023-06-29T16:25:24.829Z,21.85
2023-06-29T16:27:52.448Z,23.95
2023-06-29T16:30:21.116Z,22.80
2023-06-29T16:32:48.698Z,23.80
2023-06-29T16:35:16.355Z,21.27
2023-06-29T16:37:46.353Z,21.13
2023-06-29T16:40:14.162Z,20.52
2023-06-29T16:42:41.719Z,21.95
2023-06-29T16:45:09.859Z,21.25
2023-06-29T16:47:38.553Z,21.10
2023-06-29T16:50:06.540Z,19.73
2023-06-29T16:52:34.231Z,21.52
2023-06-29T16:55:01.906Z,25.08
2023-06-29T16:57:29.590Z,22.15
2023-06-29T16:59:57.223Z,20.42
2023-06-29T17:02:24.843Z,27.27
2023-06-29T17:04:52.609Z,20.83
2023-06-29T17:07:20.406Z,19.58
2023-06-29T17:09:48.151Z,21.20
2023-06-29T17:12:15.813Z,21.92
2023-06-29T17:14:43.891Z,22.55
2023-06-29T17:17:11.777Z,20.55
2023-06-29T17:19:41.779Z,24.02
2023-06-29T17:22:16.035Z,22.77
2023-06-29T17:24:43.928Z,22.17
2023-06-29T17:27:13.920Z,23.67
2023-06-29T17:29:42.415Z,20.52
2023-06-29T17:32:20.845Z,21.23
2023-06-29T17:34:48.795Z,19.73
2023-06-29T17:37:21.573Z,20.92
2023-06-29T17:39:49.141Z,17.05
2023-06-29T17:42:24.160Z,17.52
2023-06-29T17:44:51.783Z,16.92
2023-06-29T17:47:19.441Z,16.23
2023-06-29T17:49:47.140Z,20.85
2023-06-29T17:52:14.826Z,18.08
2023-06-29T17:54:42.398Z,12.73
2023-06-29T17:57:15.231Z,13.48
2023-06-29T17:59:42.982Z,10.65
2023-06-29T18:02:10.604Z,10.02
2023-06-29T18:04:38.213Z,9.68
2023-06-29T18:07:07.848Z,9.65
2023-06-29T18:09:35.501Z,9.52
2023-06-29T18:12:03.204Z,8.05
2023-06-29T18:14:30.818Z,7.50
2023-06-29T18:16:59.729Z,6.70
2023-06-29T18:19:27.303Z,6.65
2023-06-29T18:21:55.008Z,6.20
2023-06-29T18:24:22.605Z,6.72
2023-06-29T18:26:50.279Z,6.47
2023-06-29T18:29:17.782Z,6.53
2023-06-29T18:31:45.409Z,6.43
2023-06-29T18:34:16.123Z,6.65
2023-06-29T18:36:43.696Z,5.60
2023-06-29T18:39:11.317Z,6.28
2023-06-29T18:41:39.510Z,7.18
2023-06-29T18:44:07.634Z,7.50
2023-06-29T18:46:40.740Z,6.90
2023-06-29T18:49:08.460Z,7.13
2023-06-29T18:51:36.473Z,6.57
2023-06-29T18:54:04.055Z,12.20
2023-06-29T18:56:31.682Z,6.55
2023-06-29T18:59:00.299Z,6.45
2023-06-29T19:01:27.904Z,7.05
2023-06-29T19:03:56.635Z,4.57
2023-06-29T19:06:24.230Z,4.30
2023-06-29T19:08:51.701Z,4.18
2023-06-29T19:11:19.204Z,3.33
2023-06-29T19:13:46.674Z,3.83
2023-06-29T19:16:14.539Z,3.70
2023-06-29T19:18:42.753Z,2.50
2023-06-29T19:21:11.611Z,3.10
2023-06-29T19:23:44.061Z,3.85
2023-06-29T19:26:12.147Z,3.55
2023-06-29T19:28:39.701Z,2.47
2023-06-29T19:31:07.247Z,2.95
2023-06-29T19:33:37.018Z,2.45
2023-06-29T19:36:06.859Z,3.28
2023-06-29T19:38:34.756Z,2.85
2023-06-29T19:41:03.622Z,2.42
2023-06-29T19:43:32.107Z,3.80
2023-06-29T19:45:59.747Z,2.58
2023-06-29T19:48:27.313Z,1.52
2023-06-29T19:50:54.798Z,3.17
2023-06-29T19:53:23.516Z,2.13
2023-06-29T19:55:51.818Z,2.00
2023-06-29T19:58:20.618Z,4.05
2023-06-29T20:00:48.185Z,3.20
2023-06-29T20:03:15.973Z,3.45
2023-06-29T20:05:44.078Z,4.65
2023-06-29T20:08:11.696Z,5.38
2023-06-29T20:10:39.245Z,5.05
2023-06-29T20:13:06.843Z,4.97
2023-06-29T20:15:34.429Z,5.60
2023-06-29T20:18:01.937Z,6.10
2023-06-29T20:20:29.373Z,6.05
2023-06-29T20:22:56.825Z,5.95
2023-06-29T20:25:25.674Z,6.10
2023-06-29T20:27:56.480Z,4.40
2023-06-29T20:30:24.126Z,6.93
2023-06-29T20:32:51.705Z,5.40
2023-06-29T20:35:19.428Z,6.90
2023-06-29T20:37:46.966Z,8.10
2023-06-29T20:40:14.876Z,6.97
2023-06-29T20:42:46.035Z,7.18
2023-06-29T20:45:15.740Z,4.82
2023-06-29T20:48:10.270Z,6.53
2023-06-29T20:50:46.343Z,4.53
2023-06-29T20:53:17.772Z,5.47
2023-06-29T20:55:48.806Z,8.40
2023-06-29T20:58:20.275Z,4.88
2023-06-29T21:00:52.691Z,4.35
2023-06-29T21:03:29.681Z,5.95
2023-06-29T21:05:57.733Z,4.82
2023-06-29T21:08:30.321Z,7.10
2023-06-29T21:10:58.259Z,5.85
2023-06-29T21:13:26.274Z,6.53
2023-06-29T21:15:57.103Z,5.78
2023-06-29T21:18:33.959Z,5.50
2023-06-29T21:21:02.046Z,5.00
2023-06-29T21:23:29.773Z,5.75
2023-06-29T21:25:57.985Z,4.57
2023-06-29T21:28:26.992Z,5.93
2023-06-29T21:30:55.179Z,8.90
2023-06-29T21:33:31.548Z,6.50
2023-06-29T21:35:59.871Z,6.28
2023-06-29T21:38:31.618Z,3.78
2023-06-29T21:41:01.046Z,7.07
2023-06-29T21:43:28.840Z,5.18
2023-06-29T21:45:56.657Z,5.20
2023-06-29T21:48:24.364Z,4.82
2023-06-29T21:50:52.649Z,6.40
2023-06-29T21:53:22.840Z,6.60
2023-06-29T21:55:50.485Z,6.53
2023-06-29T21:58:18.273Z,5.30
2023-06-29T22:00:46.645Z,5.15
2023-06-29T22:03:47.651Z,5.13
2023-06-29T22:06:19.101Z,5.13
2023-06-29T22:08:59.390Z,6.55
2023-06-29T22:11:31.245Z,5.43
2023-06-29T22:13:58.800Z,6.68
2023-06-29T22:16:27.497Z,4.50
2023-06-29T22:18:55.893Z,6.25
2023-06-29T22:21:25.473Z,7.10
2023-06-29T22:23:55.114Z,4.93
2023-06-29T22:26:24.711Z,6.13
2023-06-29T22:28:53.203Z,3.97
2023-06-29T22:31:21.600Z,6.65
2023-06-29T22:33:49.339Z,4.70
2023-06-29T22:36:18.532Z,7.70
2023-06-29T22:38:49.419Z,5.15
2023-06-29T22:41:22.750Z,6.65
2023-06-29T22:43:55.522Z,7.72
2023-06-29T22:46:23.405Z,5.88
2023-06-29T22:48:51.358Z,7.28
2023-06-29T22:51:25.420Z,6.72
2023-06-29T22:53:53.758Z,8.55
2023-06-29T22:56:38.913Z,5.78
2023-06-29T22:59:12.491Z,7.40
2023-06-29T23:01:41.785Z,7.22
2023-06-29T23:04:09.822Z,9.23
2023-06-29T23:06:40.228Z,8.50
2023-06-29T23:09:19.705Z,7.03
2023-06-29T23:11:47.516Z,6.18
2023-06-29T23:14:15.646Z,8.88
2023-06-29T23:16:47.158Z,8.00
2023-06-29T23:21:43.263Z,8.68
2023-06-29T23:24:15.388Z,8.13
2023-06-29T23:26:43.432Z,7.32
2023-06-29T23:29:11.106Z,8.32
2023-06-29T23:31:38.972Z,8.52
2023-06-29T23:34:09.271Z,5.88
2023-06-29T23:36:37.205Z,8.32
2023-06-29T23:39:06.665Z,6.53
2023-06-29T23:41:34.923Z,8.35
2023-06-29T23:44:12.127Z,7.57
2023-06-29T23:46:48.568Z,6.25
2023-06-29T23:49:24.372Z,11.05
2023-06-29T23:51:52.339Z,8.13
2023-06-29T23:54:19.997Z,6.97
2023-06-29T23:56:49.268Z,11.27
2023-06-29T23:59:16.824Z,9.38
